West Paducah, KY (42086)

10:56 PM CDT on August 30, 2015 (GMT -0500)
Grahamville | | Change Station
CLOSE
Current Station
Personal Weather Station
Location: West Paducah, KY
Elevation: 390 ft
Nearby Weather Stations

Elev 390 ft 37.11 °N, 88.78 °W | Updated 12 minutes ago

Overcast
Overcast
70.8 °F
Feels Like 70.8 °F
N
4.0
Wind Variable Wind from NE
Gusts 7.0 mph

Today
High -- | Low -- °F
--% Chance of Precip.
Yesterday
High -- | Low -- °F
Precip. -- in
6:23 AM 7:26 PM
Full, 97% visible
Pressure 30.04 in
Visibility 10.0 miles
Clouds Overcast 10000 ft
Dew Point 69 °F
Humidity 93%
Rainfall 0.23 in
Snow Depth Not available.
UV 0 out of 12
Pollen 10.10 out of 12
Air Quality Not available.
Flu Activity Not available.
METAR KPAH 310353Z AUTO 00000KT 10SM OVC100 22/19 A3005 RMK AO2 SLP171 T02170194 $
Pressure 30.04 in
Visibility 10.0 miles
Clouds Overcast 10000 ft
Dew Point 69 °F
Humidity 93%
Rainfall 0.23 in
Snow Depth Not available.
UV 0 out of 12
Pollen 10.10 out of 12
Air Quality Not available.
Flu Activity Not available.
METAR KPAH 310353Z AUTO 00000KT 10SM OVC100 22/19 A3005 RMK AO2 SLP171 T02170194 $

10-Day Weather Forecast

×

Almanac

Astronomy

Aug. 30, 2015 Rise Set
Actual Time
Civil Twilight
Nautical Twilight
Astronomical Twilight
Moon
Length of Visible Light
Length of Day
Tomorrow will be .
, % of the Moon is Illuminated

Today's Extremes

State Highs State Lows

Community

WunderPhotos

Upload Photos

1,851,179 photos uploaded!

WunderBlogs® & News

Nearby

Air Quality

  Air Quality AQ Index Pollutant
Not available.

Snow Depth

Station Depth Elevation

Earthquake Activity

City Distance Mag. Time & Date
Minimum magnitude displayed is 2.5.

Coastal Water Temperatures

Place Temperature

Stations

Nearby Weather Stations

Station Location Temp. Windchill Dew Point Humidity Wind Precip. Elev Updated Type